sensor_id;sensor_type;location;lat;lon;timestamp;P1;durP1;ratioP1;P2;durP2;ratioP2
21677;SDS011;11000;50.360;7.582;2023-07-31T00:01:37;3.80;;;1.73;;
21677;SDS011;11000;50.360;7.582;2023-07-31T00:03:58;5.70;;;2.33;;
21677;SDS011;11000;50.360;7.582;2023-07-31T00:06:19;7.17;;;2.10;;
21677;SDS011;11000;50.360;7.582;2023-07-31T00:08:39;6.17;;;2.17;;
21677;SDS011;11000;50.360;7.582;2023-07-31T00:11:00;5.70;;;2.23;;
21677;SDS011;11000;50.360;7.582;2023-07-31T00:13:20;4.03;;;2.00;;
21677;SDS011;11000;50.360;7.582;2023-07-31T00:15:41;6.17;;;2.17;;
21677;SDS011;11000;50.360;7.582;2023-07-31T00:18:01;5.23;;;2.13;;
21677;SDS011;11000;50.360;7.582;2023-07-31T00:20:22;2.90;;;1.70;;
21677;SDS011;11000;50.360;7.582;2023-07-31T00:22:43;5.97;;;2.10;;
21677;SDS011;11000;50.360;7.582;2023-07-31T00:25:03;4.80;;;1.90;;
21677;SDS011;11000;50.360;7.582;2023-07-31T00:27:26;2.83;;;1.60;;
21677;SDS011;11000;50.360;7.582;2023-07-31T00:29:46;3.63;;;1.77;;
21677;SDS011;11000;50.360;7.582;2023-07-31T00:32:07;3.93;;;1.77;;
21677;SDS011;11000;50.360;7.582;2023-07-31T00:34:27;5.23;;;2.47;;
21677;SDS011;11000;50.360;7.582;2023-07-31T00:36:48;3.43;;;1.70;;
21677;SDS011;11000;50.360;7.582;2023-07-31T00:39:08;8.07;;;2.07;;
21677;SDS011;11000;50.360;7.582;2023-07-31T00:41:29;4.83;;;2.17;;
21677;SDS011;11000;50.360;7.582;2023-07-31T00:43:49;5.37;;;2.23;;
21677;SDS011;11000;50.360;7.582;2023-07-31T00:46:10;4.47;;;1.83;;
21677;SDS011;11000;50.360;7.582;2023-07-31T00:48:31;3.77;;;2.17;;
21677;SDS011;11000;50.360;7.582;2023-07-31T00:50:52;3.57;;;2.17;;
21677;SDS011;11000;50.360;7.582;2023-07-31T00:53:13;4.67;;;1.87;;
21677;SDS011;11000;50.360;7.582;2023-07-31T00:55:33;2.30;;;1.73;;
21677;SDS011;11000;50.360;7.582;2023-07-31T00:57:54;8.00;;;2.07;;
21677;SDS011;11000;50.360;7.582;2023-07-31T01:00:15;4.77;;;2.23;;
21677;SDS011;11000;50.360;7.582;2023-07-31T01:02:36;5.27;;;2.10;;
21677;SDS011;11000;50.360;7.582;2023-07-31T01:04:57;5.70;;;2.10;;
21677;SDS011;11000;50.360;7.582;2023-07-31T01:07:22;5.37;;;2.37;;
21677;SDS011;11000;50.360;7.582;2023-07-31T01:12:18;3.80;;;2.00;;
21677;SDS011;11000;50.360;7.582;2023-07-31T01:14:40;6.03;;;2.07;;
21677;SDS011;11000;50.360;7.582;2023-07-31T01:17:10;3.30;;;2.40;;
21677;SDS011;11000;50.360;7.582;2023-07-31T01:19:30;5.67;;;2.20;;
21677;SDS011;11000;50.360;7.582;2023-07-31T01:24:40;4.83;;;2.50;;
21677;SDS011;11000;50.360;7.582;2023-07-31T01:27:15;4.73;;;2.47;;
21677;SDS011;11000;50.360;7.582;2023-07-31T01:29:49;6.17;;;2.50;;
21677;SDS011;11000;50.360;7.582;2023-07-31T01:32:30;3.57;;;2.60;;
21677;SDS011;11000;50.360;7.582;2023-07-31T01:34:52;5.33;;;1.63;;
21677;SDS011;11000;50.360;7.582;2023-07-31T01:37:14;3.43;;;1.83;;
21677;SDS011;11000;50.360;7.582;2023-07-31T01:39:34;5.23;;;2.10;;
21677;SDS011;11000;50.360;7.582;2023-07-31T01:41:55;3.60;;;2.20;;
21677;SDS011;11000;50.360;7.582;2023-07-31T01:44:15;5.67;;;2.20;;
21677;SDS011;11000;50.360;7.582;2023-07-31T01:46:36;3.30;;;1.60;;
21677;SDS011;11000;50.360;7.582;2023-07-31T01:48:56;6.73;;;2.10;;
21677;SDS011;11000;50.360;7.582;2023-07-31T01:51:17;3.27;;;1.93;;
21677;SDS011;11000;50.360;7.582;2023-07-31T01:53:37;4.73;;;2.40;;
21677;SDS011;11000;50.360;7.582;2023-07-31T01:55:58;5.17;;;2.37;;
21677;SDS011;11000;50.360;7.582;2023-07-31T01:58:18;4.00;;;2.27;;
21677;SDS011;11000;50.360;7.582;2023-07-31T02:00:39;3.23;;;2.10;;
21677;SDS011;11000;50.360;7.582;2023-07-31T02:02:59;6.30;;;2.07;;
21677;SDS011;11000;50.360;7.582;2023-07-31T02:05:20;4.83;;;2.27;;
21677;SDS011;11000;50.360;7.582;2023-07-31T02:07:40;3.73;;;2.10;;
21677;SDS011;11000;50.360;7.582;2023-07-31T02:10:01;3.07;;;2.20;;
21677;SDS011;11000;50.360;7.582;2023-07-31T02:12:21;5.63;;;2.07;;
21677;SDS011;11000;50.360;7.582;2023-07-31T02:14:42;5.57;;;2.57;;
21677;SDS011;11000;50.360;7.582;2023-07-31T02:17:02;4.80;;;2.30;;
21677;SDS011;11000;50.360;7.582;2023-07-31T02:19:23;5.37;;;2.40;;
21677;SDS011;11000;50.360;7.582;2023-07-31T02:21:44;3.13;;;2.13;;
21677;SDS011;11000;50.360;7.582;2023-07-31T02:24:04;4.23;;;2.10;;
21677;SDS011;11000;50.360;7.582;2023-07-31T02:26:25;3.50;;;2.23;;
21677;SDS011;11000;50.360;7.582;2023-07-31T02:28:45;4.50;;;2.80;;
21677;SDS011;11000;50.360;7.582;2023-07-31T02:31:06;6.57;;;3.00;;
21677;SDS011;11000;50.360;7.582;2023-07-31T02:33:26;4.43;;;2.20;;
21677;SDS011;11000;50.360;7.582;2023-07-31T02:35:47;4.90;;;2.83;;
21677;SDS011;11000;50.360;7.582;2023-07-31T02:38:07;4.87;;;2.43;;
21677;SDS011;11000;50.360;7.582;2023-07-31T02:40:28;4.90;;;2.00;;
21677;SDS011;11000;50.360;7.582;2023-07-31T02:42:48;4.07;;;2.23;;
21677;SDS011;11000;50.360;7.582;2023-07-31T02:45:09;5.40;;;2.57;;
21677;SDS011;11000;50.360;7.582;2023-07-31T02:47:29;6.00;;;2.37;;
21677;SDS011;11000;50.360;7.582;2023-07-31T02:49:50;5.97;;;2.30;;
21677;SDS011;11000;50.360;7.582;2023-07-31T02:52:10;4.17;;;2.27;;
21677;SDS011;11000;50.360;7.582;2023-07-31T02:54:31;4.57;;;2.67;;
21677;SDS011;11000;50.360;7.582;2023-07-31T02:56:51;4.57;;;2.70;;
21677;SDS011;11000;50.360;7.582;2023-07-31T02:59:12;4.27;;;2.40;;
21677;SDS011;11000;50.360;7.582;2023-07-31T03:01:32;4.93;;;2.73;;
21677;SDS011;11000;50.360;7.582;2023-07-31T03:03:53;6.70;;;2.30;;
21677;SDS011;11000;50.360;7.582;2023-07-31T03:06:13;6.30;;;2.57;;
21677;SDS011;11000;50.360;7.582;2023-07-31T03:08:34;4.13;;;2.10;;
21677;SDS011;11000;50.360;7.582;2023-07-31T03:10:54;2.90;;;2.20;;
21677;SDS011;11000;50.360;7.582;2023-07-31T03:13:16;6.10;;;2.47;;
21677;SDS011;11000;50.360;7.582;2023-07-31T03:15:36;5.23;;;2.40;;
21677;SDS011;11000;50.360;7.582;2023-07-31T03:17:57;3.00;;;2.00;;
21677;SDS011;11000;50.360;7.582;2023-07-31T03:20:17;3.67;;;2.43;;
21677;SDS011;11000;50.360;7.582;2023-07-31T03:22:38;2.27;;;2.07;;
21677;SDS011;11000;50.360;7.582;2023-07-31T03:24:58;3.43;;;2.20;;
21677;SDS011;11000;50.360;7.582;2023-07-31T03:27:19;3.10;;;2.33;;
21677;SDS011;11000;50.360;7.582;2023-07-31T03:29:39;5.43;;;1.93;;
21677;SDS011;11000;50.360;7.582;2023-07-31T03:32:00;4.03;;;1.90;;
21677;SDS011;11000;50.360;7.582;2023-07-31T03:34:20;3.50;;;1.90;;
21677;SDS011;11000;50.360;7.582;2023-07-31T03:36:41;5.10;;;2.17;;
21677;SDS011;11000;50.360;7.582;2023-07-31T03:39:02;4.47;;;2.50;;
21677;SDS011;11000;50.360;7.582;2023-07-31T03:41:23;3.30;;;2.20;;
21677;SDS011;11000;50.360;7.582;2023-07-31T03:43:45;4.37;;;2.33;;
21677;SDS011;11000;50.360;7.582;2023-07-31T03:46:06;6.30;;;2.10;;
21677;SDS011;11000;50.360;7.582;2023-07-31T03:48:27;3.47;;;2.40;;
21677;SDS011;11000;50.360;7.582;2023-07-31T03:50:47;3.30;;;2.17;;
21677;SDS011;11000;50.360;7.582;2023-07-31T03:53:08;2.53;;;1.90;;
21677;SDS011;11000;50.360;7.582;2023-07-31T03:55:28;4.03;;;2.13;;
21677;SDS011;11000;50.360;7.582;2023-07-31T03:57:49;4.17;;;2.57;;
21677;SDS011;11000;50.360;7.582;2023-07-31T04:00:09;4.73;;;2.10;;
21677;SDS011;11000;50.360;7.582;2023-07-31T04:02:30;2.60;;;2.07;;
21677;SDS011;11000;50.360;7.582;2023-07-31T04:04:51;2.50;;;2.30;;
21677;SDS011;11000;50.360;7.582;2023-07-31T04:07:11;3.70;;;2.20;;
21677;SDS011;11000;50.360;7.582;2023-07-31T04:09:32;4.10;;;1.80;;
21677;SDS011;11000;50.360;7.582;2023-07-31T04:11:52;2.83;;;2.10;;
21677;SDS011;11000;50.360;7.582;2023-07-31T04:14:13;3.83;;;2.03;;
21677;SDS011;11000;50.360;7.582;2023-07-31T04:16:33;2.77;;;2.10;;
21677;SDS011;11000;50.360;7.582;2023-07-31T04:18:53;3.20;;;1.87;;
21677;SDS011;11000;50.360;7.582;2023-07-31T04:21:14;4.73;;;2.20;;
21677;SDS011;11000;50.360;7.582;2023-07-31T04:23:35;3.80;;;2.00;;
21677;SDS011;11000;50.360;7.582;2023-07-31T04:25:55;2.77;;;2.10;;
21677;SDS011;11000;50.360;7.582;2023-07-31T04:28:16;3.23;;;1.90;;
21677;SDS011;11000;50.360;7.582;2023-07-31T04:30:36;3.80;;;2.20;;
21677;SDS011;11000;50.360;7.582;2023-07-31T04:32:57;3.97;;;2.10;;
21677;SDS011;11000;50.360;7.582;2023-07-31T04:35:17;3.30;;;1.80;;
21677;SDS011;11000;50.360;7.582;2023-07-31T04:37:38;3.80;;;2.17;;
21677;SDS011;11000;50.360;7.582;2023-07-31T04:39:58;4.60;;;2.07;;
21677;SDS011;11000;50.360;7.582;2023-07-31T04:42:19;3.33;;;2.10;;
21677;SDS011;11000;50.360;7.582;2023-07-31T04:44:39;3.40;;;1.97;;
21677;SDS011;11000;50.360;7.582;2023-07-31T04:47:00;4.10;;;2.00;;
21677;SDS011;11000;50.360;7.582;2023-07-31T04:49:22;4.17;;;1.87;;
21677;SDS011;11000;50.360;7.582;2023-07-31T04:51:42;6.47;;;1.87;;
21677;SDS011;11000;50.360;7.582;2023-07-31T04:54:03;2.53;;;2.10;;
21677;SDS011;11000;50.360;7.582;2023-07-31T04:56:23;3.60;;;2.10;;
21677;SDS011;11000;50.360;7.582;2023-07-31T04:58:44;2.57;;;1.83;;
21677;SDS011;11000;50.360;7.582;2023-07-31T05:01:04;4.43;;;2.27;;
21677;SDS011;11000;50.360;7.582;2023-07-31T05:03:25;3.73;;;1.87;;
21677;SDS011;11000;50.360;7.582;2023-07-31T05:05:45;3.53;;;2.20;;
21677;SDS011;11000;50.360;7.582;2023-07-31T05:08:06;3.40;;;2.30;;
21677;SDS011;11000;50.360;7.582;2023-07-31T05:10:26;7.80;;;2.27;;
21677;SDS011;11000;50.360;7.582;2023-07-31T05:12:46;5.57;;;2.53;;
21677;SDS011;11000;50.360;7.582;2023-07-31T05:15:07;3.20;;;2.17;;
21677;SDS011;11000;50.360;7.582;2023-07-31T05:17:28;4.60;;;2.10;;
21677;SDS011;11000;50.360;7.582;2023-07-31T05:19:48;3.63;;;2.20;;
21677;SDS011;11000;50.360;7.582;2023-07-31T05:22:09;3.73;;;2.10;;
21677;SDS011;11000;50.360;7.582;2023-07-31T05:24:29;4.00;;;2.40;;
21677;SDS011;11000;50.360;7.582;2023-07-31T05:26:50;3.43;;;2.27;;
21677;SDS011;11000;50.360;7.582;2023-07-31T05:29:10;7.77;;;2.00;;
21677;SDS011;11000;50.360;7.582;2023-07-31T05:31:31;2.87;;;2.27;;
21677;SDS011;11000;50.360;7.582;2023-07-31T05:33:52;4.17;;;2.40;;
21677;SDS011;11000;50.360;7.582;2023-07-31T05:36:12;4.00;;;2.27;;
21677;SDS011;11000;50.360;7.582;2023-07-31T05:38:33;3.87;;;2.33;;
21677;SDS011;11000;50.360;7.582;2023-07-31T05:40:53;3.53;;;2.17;;
21677;SDS011;11000;50.360;7.582;2023-07-31T05:43:14;4.70;;;2.50;;
21677;SDS011;11000;50.360;7.582;2023-07-31T05:45:35;3.97;;;2.30;;
21677;SDS011;11000;50.360;7.582;2023-07-31T05:47:56;8.00;;;2.47;;
21677;SDS011;11000;50.360;7.582;2023-07-31T05:50:17;4.07;;;2.07;;
21677;SDS011;11000;50.360;7.582;2023-07-31T05:52:37;3.63;;;2.23;;
21677;SDS011;11000;50.360;7.582;2023-07-31T05:54:58;5.90;;;2.63;;
21677;SDS011;11000;50.360;7.582;2023-07-31T05:57:18;5.13;;;2.40;;
21677;SDS011;11000;50.360;7.582;2023-07-31T05:59:39;5.77;;;2.70;;
21677;SDS011;11000;50.360;7.582;2023-07-31T06:01:59;4.57;;;2.60;;
21677;SDS011;11000;50.360;7.582;2023-07-31T06:04:20;4.43;;;3.03;;
21677;SDS011;11000;50.360;7.582;2023-07-31T06:06:40;7.10;;;2.60;;
21677;SDS011;11000;50.360;7.582;2023-07-31T06:09:01;3.47;;;2.23;;
21677;SDS011;11000;50.360;7.582;2023-07-31T06:11:23;5.40;;;2.90;;
21677;SDS011;11000;50.360;7.582;2023-07-31T06:13:43;6.00;;;2.20;;
21677;SDS011;11000;50.360;7.582;2023-07-31T06:16:04;5.30;;;2.60;;
21677;SDS011;11000;50.360;7.582;2023-07-31T06:18:26;6.87;;;2.93;;
21677;SDS011;11000;50.360;7.582;2023-07-31T06:20:46;3.83;;;2.50;;
21677;SDS011;11000;50.360;7.582;2023-07-31T06:23:07;8.47;;;2.47;;
21677;SDS011;11000;50.360;7.582;2023-07-31T06:25:28;5.83;;;3.00;;
21677;SDS011;11000;50.360;7.582;2023-07-31T06:27:48;5.83;;;2.63;;
21677;SDS011;11000;50.360;7.582;2023-07-31T06:30:09;5.47;;;2.70;;
21677;SDS011;11000;50.360;7.582;2023-07-31T06:32:30;4.90;;;2.30;;
21677;SDS011;11000;50.360;7.582;2023-07-31T06:34:50;4.20;;;2.37;;
21677;SDS011;11000;50.360;7.582;2023-07-31T06:37:13;5.47;;;2.80;;
21677;SDS011;11000;50.360;7.582;2023-07-31T06:39:37;7.10;;;2.93;;
21677;SDS011;11000;50.360;7.582;2023-07-31T06:41:58;5.73;;;3.00;;
21677;SDS011;11000;50.360;7.582;2023-07-31T06:44:24;6.67;;;3.10;;
21677;SDS011;11000;50.360;7.582;2023-07-31T06:46:45;7.00;;;3.37;;
21677;SDS011;11000;50.360;7.582;2023-07-31T06:49:05;6.07;;;2.90;;
21677;SDS011;11000;50.360;7.582;2023-07-31T06:51:26;5.07;;;2.60;;
21677;SDS011;11000;50.360;7.582;2023-07-31T06:53:46;5.83;;;3.17;;
21677;SDS011;11000;50.360;7.582;2023-07-31T06:56:07;5.33;;;3.20;;
21677;SDS011;11000;50.360;7.582;2023-07-31T06:58:27;5.37;;;2.87;;
21677;SDS011;11000;50.360;7.582;2023-07-31T07:00:48;7.53;;;2.80;;
21677;SDS011;11000;50.360;7.582;2023-07-31T07:03:11;8.43;;;2.80;;
21677;SDS011;11000;50.360;7.582;2023-07-31T07:05:34;5.93;;;2.73;;
21677;SDS011;11000;50.360;7.582;2023-07-31T07:07:55;4.43;;;2.87;;
21677;SDS011;11000;50.360;7.582;2023-07-31T07:10:15;4.40;;;3.00;;
21677;SDS011;11000;50.360;7.582;2023-07-31T07:12:36;4.13;;;2.87;;
21677;SDS011;11000;50.360;7.582;2023-07-31T07:14:56;8.27;;;3.50;;
21677;SDS011;11000;50.360;7.582;2023-07-31T07:17:17;7.00;;;3.33;;
21677;SDS011;11000;50.360;7.582;2023-07-31T07:19:41;4.90;;;2.90;;
21677;SDS011;11000;50.360;7.582;2023-07-31T07:22:02;5.37;;;3.00;;
21677;SDS011;11000;50.360;7.582;2023-07-31T07:24:22;7.57;;;3.63;;
21677;SDS011;11000;50.360;7.582;2023-07-31T07:26:43;5.47;;;2.83;;
21677;SDS011;11000;50.360;7.582;2023-07-31T07:29:03;6.17;;;3.10;;
21677;SDS011;11000;50.360;7.582;2023-07-31T07:31:27;9.13;;;3.07;;
21677;SDS011;11000;50.360;7.582;2023-07-31T07:33:48;6.10;;;3.00;;
21677;SDS011;11000;50.360;7.582;2023-07-31T07:36:09;7.93;;;3.10;;
21677;SDS011;11000;50.360;7.582;2023-07-31T07:38:29;6.13;;;2.90;;
21677;SDS011;11000;50.360;7.582;2023-07-31T07:40:50;7.37;;;2.67;;
21677;SDS011;11000;50.360;7.582;2023-07-31T07:43:13;6.20;;;2.60;;
21677;SDS011;11000;50.360;7.582;2023-07-31T07:45:33;8.17;;;3.20;;
21677;SDS011;11000;50.360;7.582;2023-07-31T07:47:53;7.33;;;2.57;;
21677;SDS011;11000;50.360;7.582;2023-07-31T07:50:14;5.20;;;2.63;;
21677;SDS011;11000;50.360;7.582;2023-07-31T07:52:34;7.20;;;3.07;;
21677;SDS011;11000;50.360;7.582;2023-07-31T07:54:55;7.17;;;3.13;;
21677;SDS011;11000;50.360;7.582;2023-07-31T07:57:15;8.13;;;2.83;;
21677;SDS011;11000;50.360;7.582;2023-07-31T07:59:36;8.43;;;3.10;;
21677;SDS011;11000;50.360;7.582;2023-07-31T08:01:56;6.87;;;2.77;;
21677;SDS011;11000;50.360;7.582;2023-07-31T08:04:17;7.30;;;3.00;;
21677;SDS011;11000;50.360;7.582;2023-07-31T08:06:38;6.07;;;3.03;;
21677;SDS011;11000;50.360;7.582;2023-07-31T08:08:58;7.90;;;3.57;;
21677;SDS011;11000;50.360;7.582;2023-07-31T08:11:19;6.73;;;3.27;;
21677;SDS011;11000;50.360;7.582;2023-07-31T08:13:40;6.13;;;3.13;;
21677;SDS011;11000;50.360;7.582;2023-07-31T08:16:00;5.60;;;2.67;;
21677;SDS011;11000;50.360;7.582;2023-07-31T08:18:21;7.00;;;3.20;;
21677;SDS011;11000;50.360;7.582;2023-07-31T08:20:44;7.60;;;3.07;;
21677;SDS011;11000;50.360;7.582;2023-07-31T08:23:05;6.90;;;3.17;;
21677;SDS011;11000;50.360;7.582;2023-07-31T08:25:25;9.47;;;3.40;;
21677;SDS011;11000;50.360;7.582;2023-07-31T08:27:46;8.50;;;3.47;;
21677;SDS011;11000;50.360;7.582;2023-07-31T08:30:07;6.63;;;3.23;;
21677;SDS011;11000;50.360;7.582;2023-07-31T08:32:27;7.07;;;3.30;;
21677;SDS011;11000;50.360;7.582;2023-07-31T08:34:48;8.50;;;3.87;;
21677;SDS011;11000;50.360;7.582;2023-07-31T08:37:09;6.37;;;3.60;;
21677;SDS011;11000;50.360;7.582;2023-07-31T08:39:31;6.43;;;3.17;;
21677;SDS011;11000;50.360;7.582;2023-07-31T08:41:56;6.20;;;3.57;;
21677;SDS011;11000;50.360;7.582;2023-07-31T08:44:18;9.17;;;3.20;;
21677;SDS011;11000;50.360;7.582;2023-07-31T08:46:38;6.20;;;3.17;;
21677;SDS011;11000;50.360;7.582;2023-07-31T08:49:00;11.03;;;3.80;;
21677;SDS011;11000;50.360;7.582;2023-07-31T08:51:25;6.03;;;3.20;;
21677;SDS011;11000;50.360;7.582;2023-07-31T08:53:46;7.70;;;3.37;;
21677;SDS011;11000;50.360;7.582;2023-07-31T08:56:07;8.33;;;3.80;;
21677;SDS011;11000;50.360;7.582;2023-07-31T08:58:30;5.87;;;3.37;;
21677;SDS011;11000;50.360;7.582;2023-07-31T09:00:52;6.63;;;3.37;;
21677;SDS011;11000;50.360;7.582;2023-07-31T09:03:15;8.77;;;3.30;;
21677;SDS011;11000;50.360;7.582;2023-07-31T09:05:37;8.50;;;3.83;;
21677;SDS011;11000;50.360;7.582;2023-07-31T09:08:02;7.80;;;3.50;;
21677;SDS011;11000;50.360;7.582;2023-07-31T09:10:24;6.23;;;3.13;;
21677;SDS011;11000;50.360;7.582;2023-07-31T09:12:45;7.13;;;3.10;;
21677;SDS011;11000;50.360;7.582;2023-07-31T09:15:06;7.83;;;3.20;;
21677;SDS011;11000;50.360;7.582;2023-07-31T09:17:32;7.17;;;3.10;;
21677;SDS011;11000;50.360;7.582;2023-07-31T09:19:54;4.67;;;2.87;;
21677;SDS011;11000;50.360;7.582;2023-07-31T09:22:14;5.43;;;2.73;;
21677;SDS011;11000;50.360;7.582;2023-07-31T09:24:35;9.67;;;2.57;;
21677;SDS011;11000;50.360;7.582;2023-07-31T09:26:56;8.53;;;2.80;;
21677;SDS011;11000;50.360;7.582;2023-07-31T09:29:19;5.60;;;3.40;;
21677;SDS011;11000;50.360;7.582;2023-07-31T09:31:40;7.77;;;3.60;;
21677;SDS011;11000;50.360;7.582;2023-07-31T09:34:02;5.90;;;2.97;;
21677;SDS011;11000;50.360;7.582;2023-07-31T09:36:23;5.83;;;2.83;;
21677;SDS011;11000;50.360;7.582;2023-07-31T09:38:43;4.70;;;2.93;;
21677;SDS011;11000;50.360;7.582;2023-07-31T09:41:05;5.77;;;3.10;;
21677;SDS011;11000;50.360;7.582;2023-07-31T09:43:28;6.40;;;2.73;;
21677;SDS011;11000;50.360;7.582;2023-07-31T09:45:52;6.10;;;2.97;;
21677;SDS011;11000;50.360;7.582;2023-07-31T09:48:16;5.40;;;2.60;;
21677;SDS011;11000;50.360;7.582;2023-07-31T09:50:38;6.73;;;2.57;;
21677;SDS011;11000;50.360;7.582;2023-07-31T09:53:00;4.30;;;2.50;;
21677;SDS011;11000;50.360;7.582;2023-07-31T09:55:20;4.10;;;2.83;;
21677;SDS011;11000;50.360;7.582;2023-07-31T09:57:41;5.53;;;2.60;;
21677;SDS011;11000;50.360;7.582;2023-07-31T10:00:04;5.97;;;2.80;;
21677;SDS011;11000;50.360;7.582;2023-07-31T10:02:26;4.57;;;2.67;;
21677;SDS011;11000;50.360;7.582;2023-07-31T10:04:49;5.67;;;2.80;;
21677;SDS011;11000;50.360;7.582;2023-07-31T10:07:10;4.03;;;2.57;;
21677;SDS011;11000;50.360;7.582;2023-07-31T10:09:31;5.17;;;2.90;;
21677;SDS011;11000;50.360;7.582;2023-07-31T10:11:56;6.00;;;2.53;;
21677;SDS011;11000;50.360;7.582;2023-07-31T10:14:20;4.50;;;2.43;;
21677;SDS011;11000;50.360;7.582;2023-07-31T10:16:43;5.13;;;2.80;;
21677;SDS011;11000;50.360;7.582;2023-07-31T10:19:05;5.90;;;2.27;;
21677;SDS011;11000;50.360;7.582;2023-07-31T10:21:25;4.70;;;2.50;;
21677;SDS011;11000;50.360;7.582;2023-07-31T10:23:46;4.50;;;2.77;;
21677;SDS011;11000;50.360;7.582;2023-07-31T10:26:07;3.63;;;2.53;;
21677;SDS011;11000;50.360;7.582;2023-07-31T10:28:28;3.73;;;2.50;;
21677;SDS011;11000;50.360;7.582;2023-07-31T10:30:53;4.20;;;2.33;;
21677;SDS011;11000;50.360;7.582;2023-07-31T10:33:14;5.33;;;2.67;;
21677;SDS011;11000;50.360;7.582;2023-07-31T10:35:35;4.87;;;2.60;;
21677;SDS011;11000;50.360;7.582;2023-07-31T10:37:56;4.03;;;2.20;;
21677;SDS011;11000;50.360;7.582;2023-07-31T10:40:30;3.53;;;2.30;;
21677;SDS011;11000;50.360;7.582;2023-07-31T10:42:54;5.77;;;2.70;;
21677;SDS011;11000;50.360;7.582;2023-07-31T10:45:24;4.70;;;2.83;;
21677;SDS011;11000;50.360;7.582;2023-07-31T10:47:50;2.67;;;1.80;;
21677;SDS011;11000;50.360;7.582;2023-07-31T10:50:22;4.93;;;2.27;;
21677;SDS011;11000;50.360;7.582;2023-07-31T10:52:44;3.37;;;2.30;;
21677;SDS011;11000;50.360;7.582;2023-07-31T10:55:16;2.83;;;2.10;;
21677;SDS011;11000;50.360;7.582;2023-07-31T10:57:49;3.37;;;2.40;;
21677;SDS011;11000;50.360;7.582;2023-07-31T11:00:21;3.27;;;2.37;;
21677;SDS011;11000;50.360;7.582;2023-07-31T11:02:55;4.30;;;2.60;;
21677;SDS011;11000;50.360;7.582;2023-07-31T11:05:17;3.63;;;2.37;;
21677;SDS011;11000;50.360;7.582;2023-07-31T11:07:48;4.00;;;1.90;;
21677;SDS011;11000;50.360;7.582;2023-07-31T11:10:09;2.97;;;2.30;;
21677;SDS011;11000;50.360;7.582;2023-07-31T11:12:30;3.70;;;2.10;;
21677;SDS011;11000;50.360;7.582;2023-07-31T11:14:55;6.40;;;2.27;;
21677;SDS011;11000;50.360;7.582;2023-07-31T11:17:16;4.83;;;2.37;;
21677;SDS011;11000;50.360;7.582;2023-07-31T11:19:37;4.20;;;2.43;;
21677;SDS011;11000;50.360;7.582;2023-07-31T11:21:58;3.30;;;1.87;;
21677;SDS011;11000;50.360;7.582;2023-07-31T11:24:19;2.10;;;1.83;;
21677;SDS011;11000;50.360;7.582;2023-07-31T11:26:47;2.03;;;1.83;;
21677;SDS011;11000;50.360;7.582;2023-07-31T11:29:10;2.23;;;1.60;;
21677;SDS011;11000;50.360;7.582;2023-07-31T11:31:31;2.43;;;1.80;;
21677;SDS011;11000;50.360;7.582;2023-07-31T11:34:06;3.53;;;1.60;;
21677;SDS011;11000;50.360;7.582;2023-07-31T11:36:27;1.80;;;1.60;;
21677;SDS011;11000;50.360;7.582;2023-07-31T11:39:03;2.07;;;1.43;;
21677;SDS011;11000;50.360;7.582;2023-07-31T11:41:25;1.93;;;1.37;;
21677;SDS011;11000;50.360;7.582;2023-07-31T11:43:49;1.77;;;1.43;;
21677;SDS011;11000;50.360;7.582;2023-07-31T11:46:20;2.70;;;1.73;;
21677;SDS011;11000;50.360;7.582;2023-07-31T11:48:40;1.27;;;1.07;;
21677;SDS011;11000;50.360;7.582;2023-07-31T11:51:05;1.43;;;1.10;;
21677;SDS011;11000;50.360;7.582;2023-07-31T11:53:33;1.90;;;1.50;;
21677;SDS011;11000;50.360;7.582;2023-07-31T11:56:02;2.47;;;1.67;;
21677;SDS011;11000;50.360;7.582;2023-07-31T11:58:25;3.90;;;1.10;;
21677;SDS011;11000;50.360;7.582;2023-07-31T12:00:48;2.27;;;1.70;;
21677;SDS011;11000;50.360;7.582;2023-07-31T12:03:09;2.20;;;1.33;;
21677;SDS011;11000;50.360;7.582;2023-07-31T12:05:30;2.77;;;1.50;;
21677;SDS011;11000;50.360;7.582;2023-07-31T12:07:52;2.00;;;1.50;;
21677;SDS011;11000;50.360;7.582;2023-07-31T12:10:30;1.80;;;1.43;;
21677;SDS011;11000;50.360;7.582;2023-07-31T12:13:11;3.63;;;1.47;;
21677;SDS011;11000;50.360;7.582;2023-07-31T12:15:36;2.00;;;1.40;;
21677;SDS011;11000;50.360;7.582;2023-07-31T12:18:03;3.37;;;1.70;;
21677;SDS011;11000;50.360;7.582;2023-07-31T12:20:25;2.03;;;1.50;;
21677;SDS011;11000;50.360;7.582;2023-07-31T12:22:46;2.73;;;1.80;;
21677;SDS011;11000;50.360;7.582;2023-07-31T12:25:06;2.10;;;1.60;;
21677;SDS011;11000;50.360;7.582;2023-07-31T12:27:32;4.77;;;1.50;;
21677;SDS011;11000;50.360;7.582;2023-07-31T12:29:53;3.80;;;1.67;;
21677;SDS011;11000;50.360;7.582;2023-07-31T12:32:20;3.03;;;1.77;;
21677;SDS011;11000;50.360;7.582;2023-07-31T12:34:42;3.33;;;2.00;;
21677;SDS011;11000;50.360;7.582;2023-07-31T12:37:03;4.83;;;1.90;;
21677;SDS011;11000;50.360;7.582;2023-07-31T12:39:26;3.07;;;2.20;;
21677;SDS011;11000;50.360;7.582;2023-07-31T12:41:46;2.53;;;2.13;;
21677;SDS011;11000;50.360;7.582;2023-07-31T12:44:07;2.60;;;2.13;;
21677;SDS011;11000;50.360;7.582;2023-07-31T12:46:27;4.50;;;2.17;;
21677;SDS011;11000;50.360;7.582;2023-07-31T12:48:48;3.10;;;2.53;;
21677;SDS011;11000;50.360;7.582;2023-07-31T12:51:08;2.40;;;1.87;;
21677;SDS011;11000;50.360;7.582;2023-07-31T12:53:29;5.73;;;2.23;;
21677;SDS011;11000;50.360;7.582;2023-07-31T12:55:49;2.27;;;2.00;;
21677;SDS011;11000;50.360;7.582;2023-07-31T12:58:10;2.77;;;1.93;;
21677;SDS011;11000;50.360;7.582;2023-07-31T13:00:31;2.67;;;1.97;;
21677;SDS011;11000;50.360;7.582;2023-07-31T13:02:52;2.07;;;1.80;;
21677;SDS011;11000;50.360;7.582;2023-07-31T13:05:12;3.03;;;1.90;;
21677;SDS011;11000;50.360;7.582;2023-07-31T13:07:33;3.83;;;2.13;;
21677;SDS011;11000;50.360;7.582;2023-07-31T13:09:54;2.73;;;1.90;;
21677;SDS011;11000;50.360;7.582;2023-07-31T13:12:14;3.17;;;1.67;;
21677;SDS011;11000;50.360;7.582;2023-07-31T13:14:35;2.90;;;1.80;;
21677;SDS011;11000;50.360;7.582;2023-07-31T13:16:55;2.53;;;1.80;;
21677;SDS011;11000;50.360;7.582;2023-07-31T13:19:16;2.43;;;1.73;;
21677;SDS011;11000;50.360;7.582;2023-07-31T13:21:36;2.03;;;1.60;;
21677;SDS011;11000;50.360;7.582;2023-07-31T13:23:58;2.57;;;1.57;;
21677;SDS011;11000;50.360;7.582;2023-07-31T13:26:20;2.13;;;1.70;;
21677;SDS011;11000;50.360;7.582;2023-07-31T13:28:41;2.13;;;1.53;;
21677;SDS011;11000;50.360;7.582;2023-07-31T13:31:01;2.63;;;1.67;;
21677;SDS011;11000;50.360;7.582;2023-07-31T13:33:22;2.20;;;1.30;;
21677;SDS011;11000;50.360;7.582;2023-07-31T13:35:42;2.00;;;1.27;;
21677;SDS011;11000;50.360;7.582;2023-07-31T13:38:03;1.63;;;1.20;;
21677;SDS011;11000;50.360;7.582;2023-07-31T13:40:23;3.10;;;1.27;;
21677;SDS011;11000;50.360;7.582;2023-07-31T13:42:44;1.33;;;1.10;;
21677;SDS011;11000;50.360;7.582;2023-07-31T13:45:06;1.37;;;1.17;;
21677;SDS011;11000;50.360;7.582;2023-07-31T13:47:26;1.33;;;1.20;;
21677;SDS011;11000;50.360;7.582;2023-07-31T13:49:47;2.23;;;1.30;;
21677;SDS011;11000;50.360;7.582;2023-07-31T13:52:07;1.93;;;1.20;;
21677;SDS011;11000;50.360;7.582;2023-07-31T13:54:28;1.33;;;1.23;;
21677;SDS011;11000;50.360;7.582;2023-07-31T13:56:48;2.70;;;1.23;;
21677;SDS011;11000;50.360;7.582;2023-07-31T13:59:09;2.43;;;1.30;;
21677;SDS011;11000;50.360;7.582;2023-07-31T14:01:31;4.10;;;1.20;;
21677;SDS011;11000;50.360;7.582;2023-07-31T14:03:52;1.33;;;1.20;;
21677;SDS011;11000;50.360;7.582;2023-07-31T14:06:12;1.50;;;1.30;;
21677;SDS011;11000;50.360;7.582;2023-07-31T14:08:33;2.30;;;1.20;;
21677;SDS011;11000;50.360;7.582;2023-07-31T14:10:55;3.30;;;2.23;;
21677;SDS011;11000;50.360;7.582;2023-07-31T14:13:15;4.30;;;1.33;;
21677;SDS011;11000;50.360;7.582;2023-07-31T14:15:36;2.00;;;1.50;;
21677;SDS011;11000;50.360;7.582;2023-07-31T14:17:57;3.67;;;1.50;;
21677;SDS011;11000;50.360;7.582;2023-07-31T14:20:17;2.17;;;1.40;;